createdAt,value
2017-10-25T00:00:44.950Z,15.90
2017-10-25T00:01:47.574Z,15.90
2017-10-25T00:02:50.171Z,15.90
2017-10-25T00:03:53.610Z,15.90
2017-10-25T00:04:56.879Z,15.90
2017-10-25T00:05:59.926Z,15.80
2017-10-25T00:07:02.407Z,15.90
2017-10-25T00:08:05.159Z,15.90
2017-10-25T00:09:08.242Z,15.90
2017-10-25T00:10:10.845Z,15.90
2017-10-25T00:11:13.363Z,15.90
2017-10-25T00:12:17.267Z,15.90
2017-10-25T00:13:20.488Z,15.90
2017-10-25T00:14:23.220Z,15.90
2017-10-25T00:15:25.721Z,15.90
2017-10-25T00:16:28.311Z,15.90
2017-10-25T00:17:31.031Z,15.90
2017-10-25T00:18:33.520Z,15.90
2017-10-25T00:19:36.090Z,15.90
2017-10-25T00:20:38.640Z,15.90
2017-10-25T00:21:41.378Z,15.90
2017-10-25T00:22:44.874Z,15.90
2017-10-25T00:23:49.092Z,15.90
2017-10-25T00:24:51.605Z,15.90
2017-10-25T00:25:54.591Z,15.90
2017-10-25T00:26:57.148Z,15.90
2017-10-25T00:27:59.870Z,15.90
2017-10-25T00:29:02.484Z,15.90
2017-10-25T00:30:05.160Z,15.90
2017-10-25T00:31:09.012Z,15.80
2017-10-25T00:32:11.772Z,15.80
2017-10-25T00:33:14.325Z,15.80
2017-10-25T00:34:17.728Z,15.80
2017-10-25T00:35:20.888Z,15.80
2017-10-25T00:36:30.639Z,15.80
2017-10-25T00:37:35.225Z,15.70
2017-10-25T00:38:42.169Z,15.70
2017-10-25T00:39:45.735Z,15.70
2017-10-25T00:40:53.103Z,15.80
2017-10-25T00:41:56.136Z,15.70
2017-10-25T00:42:58.717Z,15.70
2017-10-25T00:44:02.885Z,15.70
2017-10-25T00:45:08.245Z,15.70
2017-10-25T00:46:12.138Z,15.70
2017-10-25T00:47:17.214Z,15.70
2017-10-25T00:48:23.115Z,15.70
2017-10-25T00:49:30.048Z,15.70
2017-10-25T00:50:32.555Z,15.70
2017-10-25T00:51:37.666Z,15.70
2017-10-25T00:52:40.925Z,15.70
2017-10-25T00:53:44.477Z,15.60
2017-10-25T00:54:47.002Z,15.60
2017-10-25T00:55:51.534Z,15.60
2017-10-25T00:56:56.210Z,15.60
2017-10-25T00:57:59.967Z,15.60
2017-10-25T00:59:04.582Z,15.60
2017-10-25T01:00:24.628Z,15.60
2017-10-25T01:01:28.535Z,15.60
2017-10-25T01:02:34.575Z,15.60
2017-10-25T01:03:37.922Z,15.60
2017-10-25T01:04:40.816Z,15.60
2017-10-25T01:05:43.819Z,15.60
2017-10-25T01:06:48.121Z,15.60
2017-10-25T01:07:52.503Z,15.60
2017-10-25T01:08:59.316Z,15.60
2017-10-25T01:10:02.920Z,15.60
2017-10-25T01:11:08.059Z,15.60
2017-10-25T01:12:10.675Z,15.60
2017-10-25T01:13:13.509Z,15.60
2017-10-25T01:14:16.611Z,15.60
2017-10-25T01:15:21.547Z,15.60
2017-10-25T01:16:25.613Z,15.50
2017-10-25T01:17:32.306Z,15.50
2017-10-25T01:18:36.577Z,15.50
2017-10-25T01:19:40.702Z,15.50
2017-10-25T01:20:46.570Z,15.50
2017-10-25T01:21:50.418Z,15.50
2017-10-25T01:22:54.406Z,15.50
2017-10-25T01:23:59.292Z,15.50
2017-10-25T01:25:05.429Z,15.50
2017-10-25T01:26:10.236Z,15.50
2017-10-25T01:27:13.213Z,15.40
2017-10-25T01:28:17.203Z,15.50
2017-10-25T01:29:20.813Z,15.50
2017-10-25T01:30:24.258Z,15.40
2017-10-25T01:31:27.363Z,15.50
2017-10-25T01:32:31.015Z,15.50
2017-10-25T01:33:33.553Z,15.50
2017-10-25T01:34:36.497Z,15.50
2017-10-25T01:35:39.239Z,15.50
2017-10-25T01:36:42.510Z,15.50
2017-10-25T01:37:45.167Z,15.50
2017-10-25T01:38:47.691Z,15.50
2017-10-25T01:39:50.215Z,15.50
2017-10-25T01:40:53.254Z,15.50
2017-10-25T01:41:55.849Z,15.50
2017-10-25T01:42:58.404Z,15.50
2017-10-25T01:44:00.890Z,15.50
2017-10-25T01:45:05.018Z,15.60
2017-10-25T01:46:08.554Z,15.60
2017-10-25T01:47:11.030Z,15.60
2017-10-25T01:48:13.725Z,15.60
2017-10-25T01:49:16.983Z,15.60
2017-10-25T01:50:19.635Z,15.60
2017-10-25T01:51:22.126Z,15.60
2017-10-25T01:52:24.667Z,15.60
2017-10-25T01:53:27.314Z,15.60
2017-10-25T01:54:30.012Z,15.60
2017-10-25T01:55:32.504Z,15.60
2017-10-25T01:56:35.891Z,15.60
2017-10-25T01:57:38.404Z,15.60
2017-10-25T01:58:41.116Z,15.60
2017-10-25T01:59:43.604Z,15.60
2017-10-25T02:00:47.875Z,15.60
2017-10-25T02:01:50.359Z,15.60
2017-10-25T02:02:52.924Z,15.60
2017-10-25T02:03:55.538Z,15.60
2017-10-25T02:04:58.244Z,15.60
2017-10-25T02:06:00.750Z,15.60
2017-10-25T02:07:04.195Z,15.60
2017-10-25T02:08:06.776Z,15.60
2017-10-25T02:09:09.539Z,15.60
2017-10-25T02:10:12.794Z,15.60
2017-10-25T02:11:15.564Z,15.60
2017-10-25T02:12:18.058Z,15.60
2017-10-25T02:13:20.535Z,15.50
2017-10-25T02:14:22.999Z,15.50
2017-10-25T02:15:25.603Z,15.50
2017-10-25T02:16:28.868Z,15.50
2017-10-25T02:17:31.503Z,15.50
2017-10-25T02:18:33.987Z,15.60
2017-10-25T02:19:36.536Z,15.60
2017-10-25T02:20:39.092Z,15.60
2017-10-25T02:21:41.641Z,15.60
2017-10-25T02:22:44.130Z,15.50
2017-10-25T02:23:46.908Z,15.50
2017-10-25T02:24:49.424Z,15.50
2017-10-25T02:25:52.966Z,15.40
2017-10-25T02:26:56.441Z,15.40
2017-10-25T02:27:59.153Z,15.40
2017-10-25T02:29:01.969Z,15.40
2017-10-25T02:30:04.515Z,15.40
2017-10-25T02:31:08.559Z,15.40
2017-10-25T02:32:11.521Z,15.40
2017-10-25T02:33:14.002Z,15.40
2017-10-25T02:34:16.671Z,15.40
2017-10-25T02:35:19.200Z,15.40
2017-10-25T02:36:21.771Z,15.40
2017-10-25T02:37:24.261Z,15.40
2017-10-25T02:38:26.786Z,15.40
2017-10-25T02:39:30.046Z,15.40
2017-10-25T02:40:32.691Z,15.30
2017-10-25T02:41:35.191Z,15.30
2017-10-25T02:42:37.721Z,15.30
2017-10-25T02:43:40.222Z,15.30
2017-10-25T02:44:44.057Z,15.30
2017-10-25T02:45:46.598Z,15.30
2017-10-25T02:46:50.014Z,15.30
2017-10-25T02:47:52.520Z,15.30
2017-10-25T02:48:55.322Z,15.30
2017-10-25T02:49:58.592Z,15.40
2017-10-25T02:51:01.239Z,15.30
2017-10-25T02:52:03.725Z,15.40
2017-10-25T02:53:07.216Z,15.40
2017-10-25T02:54:09.814Z,15.30
2017-10-25T02:55:12.587Z,15.30
2017-10-25T02:56:15.162Z,15.30
2017-10-25T02:57:17.902Z,15.40
2017-10-25T02:58:20.413Z,15.40
2017-10-25T02:59:22.979Z,15.40
2017-10-25T03:00:25.521Z,15.40
2017-10-25T03:01:28.266Z,15.40
2017-10-25T03:02:30.753Z,15.40
2017-10-25T03:03:34.228Z,15.40
2017-10-25T03:04:37.474Z,15.40
2017-10-25T03:05:40.207Z,15.40
2017-10-25T03:06:42.747Z,15.40
2017-10-25T03:07:45.488Z,15.40
2017-10-25T03:08:48.008Z,15.40
2017-10-25T03:09:50.516Z,15.40
2017-10-25T03:10:53.212Z,15.40
2017-10-25T03:11:56.958Z,15.40
2017-10-25T03:12:59.449Z,15.40
2017-10-25T03:14:02.174Z,15.40
2017-10-25T03:15:04.672Z,15.40
2017-10-25T03:16:07.179Z,15.40
2017-10-25T03:17:10.436Z,15.50
2017-10-25T03:18:16.157Z,15.40
2017-10-25T03:19:18.699Z,15.40
2017-10-25T03:20:21.192Z,15.50
2017-10-25T03:21:23.696Z,15.50
2017-10-25T03:22:27.768Z,15.50
2017-10-25T03:23:31.021Z,15.50
2017-10-25T03:24:33.727Z,15.40
2017-10-25T03:25:36.608Z,15.40
2017-10-25T03:26:42.671Z,15.50
2017-10-25T03:27:46.326Z,15.50
2017-10-25T03:28:50.775Z,15.50
2017-10-25T03:29:53.571Z,15.50
2017-10-25T03:30:56.765Z,15.50
2017-10-25T03:31:59.254Z,15.50
2017-10-25T03:33:03.124Z,15.40
2017-10-25T03:34:05.621Z,15.50
2017-10-25T03:35:08.956Z,15.50
2017-10-25T03:36:12.760Z,15.50
2017-10-25T03:37:17.737Z,15.40
2017-10-25T03:38:20.544Z,15.40
2017-10-25T03:39:24.057Z,15.40
2017-10-25T03:40:26.555Z,15.40
2017-10-25T03:41:29.031Z,15.50
2017-10-25T03:42:31.552Z,15.50
2017-10-25T03:43:34.299Z,15.50
2017-10-25T03:44:36.857Z,15.40
2017-10-25T03:45:40.339Z,15.40
2017-10-25T03:46:42.828Z,15.40
2017-10-25T03:47:46.272Z,15.40
2017-10-25T03:48:48.834Z,15.40
2017-10-25T03:49:51.348Z,15.40
2017-10-25T03:50:54.599Z,15.40
2017-10-25T03:51:57.274Z,15.40
2017-10-25T03:52:59.762Z,15.40
2017-10-25T03:54:05.117Z,15.40
2017-10-25T03:55:07.713Z,15.40
2017-10-25T03:56:10.725Z,15.40
2017-10-25T03:57:14.180Z,15.40
2017-10-25T03:58:16.675Z,15.40
2017-10-25T03:59:19.183Z,15.40
2017-10-25T04:00:22.925Z,15.40
2017-10-25T04:01:25.409Z,15.40
2017-10-25T04:02:28.899Z,15.40
2017-10-25T04:03:32.275Z,15.50
2017-10-25T04:04:35.763Z,15.40
2017-10-25T04:05:38.285Z,15.40
2017-10-25T04:06:42.122Z,15.40
2017-10-25T04:07:44.621Z,15.40
2017-10-25T04:08:50.087Z,15.40
2017-10-25T04:09:53.448Z,15.40
2017-10-25T04:10:56.220Z,15.40
2017-10-25T04:11:58.797Z,15.50
2017-10-25T04:13:01.404Z,15.50
2017-10-25T04:14:03.893Z,15.50
2017-10-25T04:15:07.370Z,15.40
2017-10-25T04:16:09.833Z,15.40
2017-10-25T04:17:14.106Z,15.50
2017-10-25T04:18:16.647Z,15.50
2017-10-25T04:19:19.121Z,15.50
2017-10-25T04:20:25.828Z,15.50
2017-10-25T04:21:28.404Z,15.50
2017-10-25T04:22:31.892Z,15.50
2017-10-25T04:23:34.579Z,15.50
2017-10-25T04:24:37.879Z,15.50
2017-10-25T04:25:41.129Z,15.50
2017-10-25T04:26:43.779Z,15.50
2017-10-25T04:27:46.391Z,15.50
2017-10-25T04:28:49.795Z,15.50
2017-10-25T04:29:52.295Z,15.40
2017-10-25T04:30:54.932Z,15.50
2017-10-25T04:31:57.416Z,15.50
2017-10-25T04:33:00.098Z,15.50
2017-10-25T04:34:02.611Z,15.50
2017-10-25T04:35:05.452Z,15.50
2017-10-25T04:36:07.948Z,15.50
2017-10-25T04:37:11.433Z,15.60
2017-10-25T04:38:14.691Z,15.60
2017-10-25T04:39:17.202Z,15.50
2017-10-25T04:40:19.776Z,15.60
2017-10-25T04:41:23.295Z,15.60
2017-10-25T04:42:25.840Z,15.60
2017-10-25T04:43:28.336Z,15.60
2017-10-25T04:44:30.826Z,15.60
2017-10-25T04:45:33.382Z,15.60
2017-10-25T04:46:35.866Z,15.60
2017-10-25T04:47:39.366Z,15.60
2017-10-25T04:48:42.995Z,15.60
2017-10-25T04:49:45.603Z,15.60
2017-10-25T04:50:48.088Z,15.60
2017-10-25T04:51:51.837Z,15.60
2017-10-25T04:52:54.363Z,15.50
2017-10-25T04:53:57.590Z,15.60
2017-10-25T04:55:00.116Z,15.60
2017-10-25T04:56:02.886Z,15.60
2017-10-25T04:57:05.430Z,15.60
2017-10-25T04:58:08.815Z,15.60
2017-10-25T04:59:12.126Z,15.60
2017-10-25T05:00:14.793Z,15.60
2017-10-25T05:01:17.304Z,15.60
2017-10-25T05:02:20.675Z,15.60
2017-10-25T05:03:23.181Z,15.60
2017-10-25T05:04:26.647Z,15.60
2017-10-25T05:05:29.174Z,15.60
2017-10-25T05:06:31.758Z,15.60
2017-10-25T05:07:34.316Z,15.60
2017-10-25T05:08:36.996Z,15.60
2017-10-25T05:09:39.514Z,15.60
2017-10-25T05:10:42.038Z,15.60
2017-10-25T05:11:44.532Z,15.60
2017-10-25T05:12:47.987Z,15.60
2017-10-25T05:13:50.472Z,15.60
2017-10-25T05:14:54.720Z,15.60
2017-10-25T05:15:59.167Z,15.60
2017-10-25T05:17:01.747Z,15.60
2017-10-25T05:18:06.312Z,15.60
2017-10-25T05:19:10.121Z,15.60
2017-10-25T05:20:18.200Z,15.60
2017-10-25T05:21:24.747Z,15.60
2017-10-25T05:22:28.371Z,15.60
2017-10-25T05:23:32.205Z,15.60
2017-10-25T05:24:39.879Z,15.60
2017-10-25T05:25:42.459Z,15.60
2017-10-25T05:26:46.258Z,15.60
2017-10-25T05:27:49.587Z,15.60
2017-10-25T05:28:52.096Z,15.60
2017-10-25T05:29:54.889Z,15.60
2017-10-25T05:31:02.012Z,15.60
2017-10-25T05:32:04.919Z,15.60
2017-10-25T05:33:07.944Z,15.60
2017-10-25T05:34:12.746Z,15.60
2017-10-25T05:35:16.645Z,15.60
2017-10-25T05:36:21.514Z,15.60
2017-10-25T05:37:25.623Z,15.60
2017-10-25T05:38:28.372Z,15.60
2017-10-25T05:39:30.938Z,15.60
2017-10-25T05:40:33.915Z,15.50
2017-10-25T05:41:36.399Z,15.50
2017-10-25T05:42:41.901Z,15.50
2017-10-25T05:43:44.398Z,15.50
2017-10-25T05:44:47.171Z,15.50
2017-10-25T05:45:49.663Z,15.50
2017-10-25T05:46:53.270Z,15.50
2017-10-25T05:47:55.802Z,15.50
2017-10-25T05:49:15.191Z,15.50
2017-10-25T05:50:17.717Z,15.60
2017-10-25T05:51:20.355Z,15.60
2017-10-25T05:52:24.545Z,15.60
2017-10-25T05:53:29.946Z,15.60
2017-10-25T05:54:34.047Z,15.60
2017-10-25T05:55:37.280Z,15.60
2017-10-25T05:56:40.575Z,15.50
2017-10-25T05:57:43.095Z,15.50
2017-10-25T05:58:47.432Z,15.40
2017-10-25T05:59:55.951Z,15.40
2017-10-25T06:01:02.785Z,15.40
2017-10-25T06:02:06.616Z,15.40
2017-10-25T06:03:09.474Z,15.40
2017-10-25T06:04:13.200Z,15.40
2017-10-25T06:05:15.775Z,15.50
2017-10-25T06:06:19.218Z,15.40
2017-10-25T06:07:22.967Z,15.40
2017-10-25T06:08:26.468Z,15.40
2017-10-25T06:09:28.974Z,15.40
2017-10-25T06:10:31.677Z,15.30
2017-10-25T06:11:34.432Z,15.30
2017-10-25T06:12:38.101Z,15.40
2017-10-25T06:13:41.586Z,15.40
2017-10-25T06:14:46.240Z,15.40
2017-10-25T06:15:49.427Z,15.40
2017-10-25T06:16:53.872Z,15.40
2017-10-25T06:17:57.106Z,15.40
2017-10-25T06:18:59.625Z,15.40
2017-10-25T06:20:03.138Z,15.40
2017-10-25T06:21:06.416Z,15.40
2017-10-25T06:22:10.591Z,15.30
2017-10-25T06:23:13.125Z,15.30
2017-10-25T06:24:18.151Z,15.30
2017-10-25T06:25:25.314Z,15.20
2017-10-25T06:26:29.751Z,15.20
2017-10-25T06:27:34.437Z,15.20
2017-10-25T06:28:39.365Z,15.20
2017-10-25T06:29:42.905Z,15.20
2017-10-25T06:30:47.671Z,15.20
2017-10-25T06:31:51.082Z,15.10
2017-10-25T06:32:54.568Z,15.10
2017-10-25T06:33:58.335Z,15.20
2017-10-25T06:35:03.574Z,15.20
2017-10-25T06:36:06.065Z,15.20
2017-10-25T06:37:08.604Z,15.20
2017-10-25T06:38:11.089Z,15.20
2017-10-25T06:39:13.582Z,15.20
2017-10-25T06:40:16.099Z,15.30
2017-10-25T06:41:18.624Z,15.20
2017-10-25T06:42:21.201Z,15.30
2017-10-25T06:43:24.564Z,15.40
2017-10-25T06:44:27.065Z,15.30
2017-10-25T06:45:29.621Z,15.40
2017-10-25T06:46:32.884Z,15.40
2017-10-25T06:47:35.547Z,15.40
2017-10-25T06:48:38.037Z,15.50
2017-10-25T06:51:11.297Z,15.50
2017-10-25T06:52:13.984Z,15.60
2017-10-25T06:53:26.652Z,15.60
2017-10-25T06:54:30.130Z,15.60
2017-10-25T06:55:33.043Z,15.60
2017-10-25T06:56:42.535Z,15.60
2017-10-25T06:57:45.706Z,15.70
2017-10-25T06:58:49.481Z,15.70
2017-10-25T06:59:52.769Z,15.70
2017-10-25T07:00:55.850Z,15.70
2017-10-25T07:01:59.107Z,15.70
2017-10-25T07:03:01.750Z,15.70
2017-10-25T07:04:04.371Z,15.80
2017-10-25T07:05:08.091Z,15.80
2017-10-25T07:06:11.204Z,15.80
2017-10-25T07:07:15.957Z,15.90
2017-10-25T07:08:19.774Z,15.90
2017-10-25T07:09:28.188Z,15.90
2017-10-25T07:10:32.692Z,15.90
2017-10-25T07:11:36.157Z,15.90
2017-10-25T07:12:41.042Z,15.90
2017-10-25T07:13:43.828Z,15.90
2017-10-25T07:14:46.965Z,15.90
2017-10-25T07:15:54.039Z,16.00
2017-10-25T07:16:58.662Z,16.00
2017-10-25T07:18:03.888Z,16.00
2017-10-25T07:19:07.568Z,16.00
2017-10-25T07:20:10.270Z,16.00
2017-10-25T07:21:12.748Z,16.10
2017-10-25T07:22:15.337Z,16.00
2017-10-25T07:23:18.616Z,16.00
2017-10-25T07:24:21.271Z,16.00
2017-10-25T07:25:24.809Z,16.10
2017-10-25T07:26:27.540Z,16.10
2017-10-25T07:27:30.048Z,16.10
2017-10-25T07:28:32.598Z,16.10
2017-10-25T07:29:39.828Z,16.20
2017-10-25T07:30:42.565Z,16.10
2017-10-25T07:31:45.068Z,16.20
2017-10-25T07:32:47.675Z,16.20
2017-10-25T07:33:50.948Z,16.10
2017-10-25T07:34:54.411Z,16.00
2017-10-25T07:35:56.887Z,16.00
2017-10-25T07:36:59.501Z,16.00
2017-10-25T07:38:02.003Z,16.00
2017-10-25T07:39:04.548Z,16.00
2017-10-25T07:40:07.742Z,16.00
2017-10-25T07:41:11.815Z,16.00
2017-10-25T07:42:15.032Z,16.00
2017-10-25T07:43:18.241Z,16.10
2017-10-25T07:44:24.788Z,16.20
2017-10-25T07:45:27.561Z,16.30
2017-10-25T07:46:34.763Z,16.40
2017-10-25T07:47:39.650Z,16.40
2017-10-25T07:48:47.006Z,16.40
2017-10-25T07:49:50.776Z,16.40
2017-10-25T07:50:54.688Z,16.40
2017-10-25T07:52:01.416Z,16.30
2017-10-25T07:53:07.062Z,16.90
2017-10-25T07:54:09.903Z,16.90
2017-10-25T07:55:12.429Z,16.80
2017-10-25T07:56:15.477Z,16.80
2017-10-25T07:57:18.737Z,16.70
2017-10-25T07:58:21.437Z,16.70
2017-10-25T07:59:24.680Z,16.60
2017-10-25T08:00:27.348Z,16.60
2017-10-25T08:01:29.846Z,16.60
2017-10-25T08:02:33.304Z,16.60
2017-10-25T08:03:35.834Z,16.60
2017-10-25T08:04:38.351Z,17.00
2017-10-25T08:05:40.965Z,17.10
2017-10-25T08:06:43.669Z,17.60
2017-10-25T08:07:46.151Z,17.80
2017-10-25T08:08:48.693Z,18.10
2017-10-25T08:09:51.175Z,18.60
2017-10-25T08:10:53.740Z,19.00
2017-10-25T08:11:56.267Z,19.40
2017-10-25T08:12:58.916Z,19.70
2017-10-25T08:14:02.265Z,19.70
2017-10-25T08:15:04.842Z,19.70
2017-10-25T08:16:07.408Z,19.70
2017-10-25T08:17:12.873Z,19.90
2017-10-25T08:18:15.615Z,20.20
2017-10-25T08:19:18.538Z,20.10
2017-10-25T08:20:22.963Z,20.30
2017-10-25T08:22:32.746Z,20.40
2017-10-25T08:23:39.516Z,20.40
2017-10-25T08:24:43.821Z,20.30
2017-10-25T08:25:47.728Z,20.20
2017-10-25T08:26:51.448Z,20.70
2017-10-25T08:27:58.208Z,20.70
2017-10-25T08:29:01.873Z,20.30
2017-10-25T08:30:05.338Z,20.40
2017-10-25T08:31:08.150Z,20.50
2017-10-25T08:32:13.900Z,20.70
2017-10-25T08:33:18.755Z,20.60
2017-10-25T08:34:21.570Z,20.70
2017-10-25T08:35:25.400Z,19.80
2017-10-25T08:36:28.608Z,19.50
2017-10-25T08:37:32.325Z,18.80
2017-10-25T08:38:36.548Z,18.60
2017-10-25T08:39:39.085Z,18.90
2017-10-25T08:40:41.667Z,19.50
2017-10-25T08:41:45.072Z,19.70
2017-10-25T08:42:52.981Z,19.30
2017-10-25T08:43:59.536Z,19.20
2017-10-25T08:45:03.175Z,19.90
2017-10-25T08:46:07.709Z,19.90
2017-10-25T08:47:11.741Z,20.30
2017-10-25T08:48:15.706Z,20.60
2017-10-25T08:49:19.011Z,20.80
2017-10-25T08:50:25.018Z,21.30
2017-10-25T08:51:29.183Z,21.30
2017-10-25T08:52:32.423Z,21.50
2017-10-25T08:53:35.219Z,21.50
2017-10-25T08:54:40.396Z,21.60
2017-10-25T08:55:43.015Z,21.60
2017-10-25T08:56:45.526Z,21.50
2017-10-25T08:57:48.062Z,20.90
2017-10-25T08:58:51.330Z,21.20
2017-10-25T08:59:54.019Z,21.20
2017-10-25T09:00:56.539Z,20.70
2017-10-25T09:01:59.081Z,20.00
2017-10-25T09:03:01.588Z,19.60
2017-10-25T09:04:04.263Z,19.50
2017-10-25T09:05:06.751Z,19.70
2017-10-25T09:06:10.095Z,18.80
2017-10-25T09:07:12.781Z,18.80
2017-10-25T09:08:15.500Z,19.50
2017-10-25T09:09:18.006Z,19.80
2017-10-25T09:10:20.684Z,19.90
2017-10-25T09:11:23.210Z,20.10
2017-10-25T09:12:32.549Z,21.30
2017-10-25T09:13:36.352Z,21.30
2017-10-25T09:14:39.466Z,20.60
2017-10-25T09:15:42.182Z,20.30
2017-10-25T09:16:44.698Z,20.30
2017-10-25T09:17:47.377Z,21.30
2017-10-25T09:18:50.017Z,22.00
2017-10-25T09:19:52.491Z,22.00
2017-10-25T09:20:55.050Z,22.20
2017-10-25T09:22:00.020Z,21.70
2017-10-25T09:23:03.988Z,21.50
2017-10-25T09:24:06.495Z,21.50
2017-10-25T09:25:09.136Z,21.20
2017-10-25T09:26:12.416Z,20.60
2017-10-25T09:27:15.084Z,20.60
2017-10-25T09:28:17.635Z,20.90
2017-10-25T09:29:20.164Z,20.80
2017-10-25T09:30:23.269Z,21.60
2017-10-25T09:31:26.675Z,21.10
2017-10-25T09:32:29.186Z,20.60
2017-10-25T09:33:31.708Z,20.30
2017-10-25T09:34:34.295Z,20.10
2017-10-25T09:35:37.813Z,19.50
2017-10-25T09:36:40.350Z,19.40
2017-10-25T09:37:43.787Z,19.10
2017-10-25T09:38:46.357Z,19.10
2017-10-25T09:39:48.961Z,19.10
2017-10-25T09:40:51.495Z,19.10
2017-10-25T09:41:54.955Z,19.00
2017-10-25T09:42:57.578Z,19.00
2017-10-25T09:44:00.664Z,19.00
2017-10-25T09:45:03.151Z,18.90
2017-10-25T09:46:07.137Z,18.80
2017-10-25T09:47:10.386Z,18.70
2017-10-25T09:48:13.059Z,18.70
2017-10-25T09:49:16.024Z,18.70
2017-10-25T09:50:20.048Z,18.80
2017-10-25T09:51:22.738Z,18.70
2017-10-25T09:52:26.722Z,18.60
2017-10-25T09:53:29.250Z,18.50
2017-10-25T09:54:31.870Z,18.50
2017-10-25T09:55:35.180Z,18.40
2017-10-25T09:56:37.993Z,18.30
2017-10-25T09:57:41.251Z,18.20
2017-10-25T09:58:43.764Z,18.20
2017-10-25T09:59:46.801Z,18.00
2017-10-25T10:00:50.414Z,17.90
2017-10-25T10:01:52.941Z,17.60
2017-10-25T10:02:56.328Z,17.60
2017-10-25T10:04:03.009Z,17.50
2017-10-25T10:05:06.886Z,17.50
2017-10-25T10:06:10.556Z,17.40
2017-10-25T10:07:15.065Z,17.30
2017-10-25T10:08:22.165Z,17.20
2017-10-25T10:09:28.739Z,17.20
2017-10-25T10:10:31.578Z,17.10
2017-10-25T10:11:39.543Z,17.00
2017-10-25T10:12:47.807Z,17.00
2017-10-25T10:13:51.367Z,17.00
2017-10-25T10:14:54.622Z,16.90
2017-10-25T10:15:57.841Z,16.90
2017-10-25T10:17:01.870Z,16.90
2017-10-25T10:18:04.484Z,16.90
2017-10-25T10:19:07.101Z,16.90
2017-10-25T10:20:10.683Z,16.90
2017-10-25T10:21:13.896Z,16.90
2017-10-25T10:22:17.079Z,16.90
2017-10-25T10:23:20.096Z,16.90
2017-10-25T10:24:23.032Z,16.90
2017-10-25T10:25:26.665Z,17.00
2017-10-25T10:26:30.169Z,17.10
2017-10-25T10:27:33.517Z,17.20
2017-10-25T10:28:36.175Z,17.20
2017-10-25T10:29:38.733Z,17.30
2017-10-25T10:30:41.957Z,17.50
2017-10-25T10:31:45.392Z,17.60
2017-10-25T10:32:49.043Z,17.50
2017-10-25T10:33:54.766Z,17.70
2017-10-25T10:34:58.736Z,17.70
2017-10-25T10:36:05.970Z,17.90
2017-10-25T10:37:08.787Z,18.00
2017-10-25T10:38:12.450Z,18.10
2017-10-25T10:39:15.042Z,18.10
2017-10-25T10:40:17.584Z,18.30
2017-10-25T10:41:21.013Z,18.60
2017-10-25T10:42:23.716Z,18.50
2017-10-25T10:43:26.307Z,18.60
2017-10-25T10:44:29.764Z,18.70
2017-10-25T10:45:35.516Z,18.60
2017-10-25T10:46:38.360Z,18.70
2017-10-25T10:47:41.426Z,18.70
2017-10-25T10:48:44.282Z,18.50
2017-10-25T10:49:51.926Z,18.60
2017-10-25T10:50:54.482Z,18.60
2017-10-25T10:51:57.292Z,18.40
2017-10-25T10:53:00.669Z,18.40
2017-10-25T10:54:03.448Z,18.40
2017-10-25T10:55:06.748Z,18.20
2017-10-25T10:56:10.300Z,18.30
2017-10-25T10:57:12.998Z,18.30
2017-10-25T10:58:16.784Z,18.40
2017-10-25T10:59:20.162Z,18.50
2017-10-25T11:00:23.015Z,18.40
2017-10-25T11:01:25.705Z,18.50
2017-10-25T11:02:28.503Z,18.50
2017-10-25T11:03:32.168Z,18.30
2017-10-25T11:04:34.903Z,18.30
2017-10-25T11:05:37.664Z,18.40
2017-10-25T11:06:40.664Z,18.20
2017-10-25T11:07:43.683Z,18.10
2017-10-25T11:08:47.555Z,17.80
2017-10-25T11:09:50.190Z,17.80
2017-10-25T11:10:52.966Z,17.80
2017-10-25T11:11:55.459Z,17.70
2017-10-25T11:12:58.715Z,17.70
2017-10-25T11:14:01.272Z,17.60
2017-10-25T11:15:04.041Z,17.60
2017-10-25T11:16:06.620Z,17.60
2017-10-25T11:17:09.222Z,17.50
2017-10-25T11:18:11.752Z,17.40
2017-10-25T11:19:14.614Z,17.30
2017-10-25T11:20:17.094Z,17.20
2017-10-25T11:21:20.215Z,17.20
2017-10-25T11:22:31.268Z,17.10
2017-10-25T11:23:34.135Z,17.00
2017-10-25T11:24:38.384Z,17.00
2017-10-25T11:25:41.483Z,17.00
2017-10-25T11:26:45.246Z,16.90
2017-10-25T11:27:52.111Z,16.90
2017-10-25T11:28:55.652Z,16.80
2017-10-25T11:29:58.219Z,16.90
2017-10-25T11:31:06.621Z,16.90
2017-10-25T11:32:10.007Z,16.80
2017-10-25T11:33:14.478Z,16.70
2017-10-25T11:34:19.846Z,16.70
2017-10-25T11:35:24.035Z,16.70
2017-10-25T11:36:27.038Z,16.70
2017-10-25T11:37:30.530Z,16.80
2017-10-25T11:38:33.077Z,16.80
2017-10-25T11:39:35.781Z,16.90
2017-10-25T11:40:38.305Z,17.00
2017-10-25T11:41:42.488Z,17.10
2017-10-25T11:42:45.454Z,17.10
2017-10-25T11:43:49.605Z,17.20
2017-10-25T11:44:52.232Z,17.10
2017-10-25T11:45:55.335Z,17.10
2017-10-25T11:46:58.639Z,17.30
2017-10-25T11:48:02.764Z,17.30
2017-10-25T11:49:05.253Z,17.30
2017-10-25T11:50:08.676Z,17.50
2017-10-25T11:51:12.575Z,17.60
2017-10-25T11:52:17.311Z,17.60
2017-10-25T11:53:21.038Z,17.70
2017-10-25T11:54:25.358Z,17.70
2017-10-25T11:55:29.807Z,17.60
2017-10-25T11:56:39.251Z,17.80
2017-10-25T11:57:43.676Z,17.80
2017-10-25T11:58:47.401Z,17.90
2017-10-25T11:59:51.201Z,18.00
2017-10-25T12:00:56.515Z,18.00
2017-10-25T12:02:00.157Z,18.00
2017-10-25T12:03:03.449Z,17.90
2017-10-25T12:04:06.751Z,17.80
2017-10-25T12:05:10.280Z,17.80
2017-10-25T12:06:13.069Z,17.80
2017-10-25T12:07:17.244Z,17.70
2017-10-25T12:08:21.382Z,17.30
2017-10-25T12:09:24.788Z,17.30
2017-10-25T12:10:27.558Z,17.30
2017-10-25T12:11:30.619Z,17.30
2017-10-25T12:12:33.320Z,17.30
2017-10-25T12:13:35.843Z,17.40
2017-10-25T12:14:42.709Z,17.40
2017-10-25T12:15:47.206Z,17.40
2017-10-25T12:16:51.903Z,17.30
2017-10-25T12:18:02.728Z,17.20
2017-10-25T12:19:05.341Z,17.10
2017-10-25T12:20:08.157Z,17.20
2017-10-25T12:21:10.710Z,17.10
2017-10-25T12:22:14.761Z,17.10
2017-10-25T12:23:18.098Z,17.10
2017-10-25T12:24:20.741Z,17.00
2017-10-25T12:25:23.402Z,17.00
2017-10-25T12:26:27.440Z,16.90
2017-10-25T12:27:31.512Z,17.00
2017-10-25T12:28:34.021Z,16.90
2017-10-25T12:29:39.035Z,17.00
2017-10-25T12:30:42.241Z,17.00
2017-10-25T12:31:45.814Z,16.90
2017-10-25T12:32:49.436Z,16.90
2017-10-25T12:33:56.740Z,17.00
2017-10-25T12:34:59.374Z,17.00
2017-10-25T12:36:04.299Z,17.00
2017-10-25T12:37:07.507Z,16.90
2017-10-25T12:38:10.458Z,17.00
2017-10-25T12:39:13.763Z,16.90
2017-10-25T12:40:17.693Z,16.90
2017-10-25T12:41:20.667Z,16.90
2017-10-25T12:42:23.399Z,16.90
2017-10-25T12:43:25.916Z,16.80
2017-10-25T12:44:29.370Z,16.90
2017-10-25T12:45:32.017Z,16.80
2017-10-25T12:46:38.002Z,16.70
2017-10-25T12:47:41.976Z,16.70
2017-10-25T12:48:45.972Z,16.70
2017-10-25T12:49:49.459Z,16.70
2017-10-25T12:50:54.732Z,16.70
2017-10-25T12:51:57.649Z,16.70
2017-10-25T12:53:04.271Z,16.60
2017-10-25T12:54:11.545Z,16.60
2017-10-25T12:55:15.619Z,16.60
2017-10-25T12:56:19.537Z,16.60
2017-10-25T12:57:23.704Z,16.60
2017-10-25T12:58:29.111Z,16.70
2017-10-25T12:59:32.048Z,16.70
2017-10-25T13:00:35.412Z,16.70
2017-10-25T13:01:38.275Z,16.70
2017-10-25T13:02:41.124Z,16.70
2017-10-25T13:03:43.755Z,16.70
2017-10-25T13:04:47.076Z,16.70
2017-10-25T13:05:49.731Z,16.70
2017-10-25T13:06:52.280Z,16.80
2017-10-25T13:07:55.805Z,16.80
2017-10-25T13:08:58.387Z,16.70
2017-10-25T13:10:01.003Z,16.70
2017-10-25T13:11:18.833Z,16.70
2017-10-25T13:14:16.627Z,16.60
2017-10-25T13:15:36.421Z,16.60
2017-10-25T13:16:40.855Z,16.70
2017-10-25T13:17:59.920Z,16.60
2017-10-25T13:19:03.194Z,16.40
2017-10-25T13:20:06.774Z,16.50
2017-10-25T13:21:09.319Z,16.40
2017-10-25T13:22:12.026Z,16.40
2017-10-25T13:23:15.555Z,16.40
2017-10-25T13:24:18.256Z,16.40
2017-10-25T13:25:20.883Z,16.40
2017-10-25T13:26:23.702Z,16.30
2017-10-25T13:27:26.467Z,16.20
2017-10-25T13:28:29.430Z,16.20
2017-10-25T13:29:32.031Z,16.20
2017-10-25T13:30:35.690Z,16.10
2017-10-25T13:31:38.367Z,16.00
2017-10-25T13:32:41.051Z,15.90
2017-10-25T13:33:43.680Z,16.00
2017-10-25T13:34:46.196Z,15.90
2017-10-25T13:35:48.831Z,15.90
2017-10-25T13:36:51.562Z,15.90
2017-10-25T13:37:57.089Z,15.90
2017-10-25T13:39:03.689Z,15.90
2017-10-25T13:40:06.882Z,15.80
2017-10-25T13:41:12.877Z,15.80
2017-10-25T13:42:16.152Z,15.80
2017-10-25T13:43:19.557Z,15.70